sensor_id;sensor_type;location;lat;lon;timestamp;P1;durP1;ratioP1;P2;durP2;ratioP2
2396;SDS011;1209;48.410;9.054;2023-03-03T00:01:14;39.00;;;17.70;;
2396;SDS011;1209;48.410;9.054;2023-03-03T00:03:41;40.05;;;19.33;;
2396;SDS011;1209;48.410;9.054;2023-03-03T00:06:07;37.30;;;20.03;;
2396;SDS011;1209;48.410;9.054;2023-03-03T00:08:35;40.65;;;17.83;;
2396;SDS011;1209;48.410;9.054;2023-03-03T00:11:00;37.97;;;18.57;;
2396;SDS011;1209;48.410;9.054;2023-03-03T00:13:29;38.75;;;17.95;;
2396;SDS011;1209;48.410;9.054;2023-03-03T00:16:04;45.40;;;19.60;;
2396;SDS011;1209;48.410;9.054;2023-03-03T00:18:37;40.00;;;18.48;;
2396;SDS011;1209;48.410;9.054;2023-03-03T00:21:18;38.53;;;19.45;;
2396;SDS011;1209;48.410;9.054;2023-03-03T00:23:49;39.17;;;17.38;;
2396;SDS011;1209;48.410;9.054;2023-03-03T00:26:22;37.93;;;19.00;;
2396;SDS011;1209;48.410;9.054;2023-03-03T00:28:58;35.22;;;16.45;;
2396;SDS011;1209;48.410;9.054;2023-03-03T00:31:28;40.95;;;20.15;;
2396;SDS011;1209;48.410;9.054;2023-03-03T00:34:00;34.53;;;17.48;;
2396;SDS011;1209;48.410;9.054;2023-03-03T00:36:47;32.20;;;17.33;;
2396;SDS011;1209;48.410;9.054;2023-03-03T00:41:53;38.90;;;18.45;;
2396;SDS011;1209;48.410;9.054;2023-03-03T00:44:38;38.75;;;16.73;;
2396;SDS011;1209;48.410;9.054;2023-03-03T00:50:21;33.00;;;17.83;;
2396;SDS011;1209;48.410;9.054;2023-03-03T00:52:57;34.45;;;15.65;;
2396;SDS011;1209;48.410;9.054;2023-03-03T00:55:25;32.92;;;16.20;;
2396;SDS011;1209;48.410;9.054;2023-03-03T00:57:51;37.03;;;18.07;;
2396;SDS011;1209;48.410;9.054;2023-03-03T01:00:17;38.57;;;18.83;;
2396;SDS011;1209;48.410;9.054;2023-03-03T01:02:42;36.80;;;17.47;;
2396;SDS011;1209;48.410;9.054;2023-03-03T01:05:10;44.13;;;19.27;;
2396;SDS011;1209;48.410;9.054;2023-03-03T01:07:37;38.28;;;18.50;;
2396;SDS011;1209;48.410;9.054;2023-03-03T01:10:02;35.00;;;19.13;;
2396;SDS011;1209;48.410;9.054;2023-03-03T01:12:28;35.53;;;18.97;;
2396;SDS011;1209;48.410;9.054;2023-03-03T01:14:53;36.13;;;19.03;;
2396;SDS011;1209;48.410;9.054;2023-03-03T01:17:19;38.80;;;18.47;;
2396;SDS011;1209;48.410;9.054;2023-03-03T01:19:44;38.10;;;16.90;;
2396;SDS011;1209;48.410;9.054;2023-03-03T01:22:10;36.20;;;19.23;;
2396;SDS011;1209;48.410;9.054;2023-03-03T01:24:35;36.87;;;18.17;;
2396;SDS011;1209;48.410;9.054;2023-03-03T01:27:00;37.03;;;19.47;;
2396;SDS011;1209;48.410;9.054;2023-03-03T01:29:26;41.43;;;18.37;;
2396;SDS011;1209;48.410;9.054;2023-03-03T01:31:51;41.93;;;18.83;;
2396;SDS011;1209;48.410;9.054;2023-03-03T01:34:16;40.63;;;19.30;;
2396;SDS011;1209;48.410;9.054;2023-03-03T01:36:41;47.40;;;19.27;;
2396;SDS011;1209;48.410;9.054;2023-03-03T01:39:07;46.33;;;19.40;;
2396;SDS011;1209;48.410;9.054;2023-03-03T01:41:34;37.60;;;18.00;;
2396;SDS011;1209;48.410;9.054;2023-03-03T01:43:59;32.30;;;17.37;;
2396;SDS011;1209;48.410;9.054;2023-03-03T01:46:33;39.27;;;20.30;;
2396;SDS011;1209;48.410;9.054;2023-03-03T01:49:17;33.53;;;18.33;;
2396;SDS011;1209;48.410;9.054;2023-03-03T01:52:10;36.45;;;17.88;;
2396;SDS011;1209;48.410;9.054;2023-03-03T01:54:48;39.42;;;16.75;;
2396;SDS011;1209;48.410;9.054;2023-03-03T01:57:18;38.45;;;17.48;;
2396;SDS011;1209;48.410;9.054;2023-03-03T01:59:50;42.63;;;18.85;;
2396;SDS011;1209;48.410;9.054;2023-03-03T02:02:17;35.25;;;18.52;;
2396;SDS011;1209;48.410;9.054;2023-03-03T02:04:43;37.10;;;18.02;;
2396;SDS011;1209;48.410;9.054;2023-03-03T02:07:09;47.00;;;22.27;;
2396;SDS011;1209;48.410;9.054;2023-03-03T02:12:41;37.55;;;19.25;;
2396;SDS011;1209;48.410;9.054;2023-03-03T02:15:23;34.35;;;16.45;;
2396;SDS011;1209;48.410;9.054;2023-03-03T02:17:58;40.28;;;19.08;;
2396;SDS011;1209;48.410;9.054;2023-03-03T02:26:07;34.60;;;18.02;;
2396;SDS011;1209;48.410;9.054;2023-03-03T02:28:36;33.67;;;18.05;;
2396;SDS011;1209;48.410;9.054;2023-03-03T02:31:05;33.53;;;17.73;;
2396;SDS011;1209;48.410;9.054;2023-03-03T02:33:34;40.95;;;18.42;;
2396;SDS011;1209;48.410;9.054;2023-03-03T02:36:00;39.13;;;18.03;;
2396;SDS011;1209;48.410;9.054;2023-03-03T02:41:20;36.78;;;19.55;;
2396;SDS011;1209;48.410;9.054;2023-03-03T02:44:09;35.95;;;17.42;;
2396;SDS011;1209;48.410;9.054;2023-03-03T02:46:36;40.92;;;18.13;;
2396;SDS011;1209;48.410;9.054;2023-03-03T02:49:03;35.47;;;16.77;;
2396;SDS011;1209;48.410;9.054;2023-03-03T02:51:30;35.95;;;16.00;;
2396;SDS011;1209;48.410;9.054;2023-03-03T02:53:56;37.70;;;18.10;;
2396;SDS011;1209;48.410;9.054;2023-03-03T02:56:21;38.40;;;19.87;;
2396;SDS011;1209;48.410;9.054;2023-03-03T02:58:47;37.43;;;17.10;;
2396;SDS011;1209;48.410;9.054;2023-03-03T03:01:12;34.03;;;17.93;;
2396;SDS011;1209;48.410;9.054;2023-03-03T03:03:37;33.23;;;16.47;;
2396;SDS011;1209;48.410;9.054;2023-03-03T03:06:03;33.23;;;17.70;;
2396;SDS011;1209;48.410;9.054;2023-03-03T03:08:28;34.40;;;18.00;;
2396;SDS011;1209;48.410;9.054;2023-03-03T03:10:53;34.50;;;18.03;;
2396;SDS011;1209;48.410;9.054;2023-03-03T03:13:20;34.05;;;15.45;;
2396;SDS011;1209;48.410;9.054;2023-03-03T03:15:46;36.08;;;18.20;;
2396;SDS011;1209;48.410;9.054;2023-03-03T03:18:12;35.90;;;18.00;;
2396;SDS011;1209;48.410;9.054;2023-03-03T03:20:38;34.83;;;15.40;;
2396;SDS011;1209;48.410;9.054;2023-03-03T03:23:05;28.55;;;15.95;;
2396;SDS011;1209;48.410;9.054;2023-03-03T03:25:30;41.60;;;17.90;;
2396;SDS011;1209;48.410;9.054;2023-03-03T03:27:56;29.87;;;15.57;;
2396;SDS011;1209;48.410;9.054;2023-03-03T03:30:21;35.00;;;17.93;;
2396;SDS011;1209;48.410;9.054;2023-03-03T03:32:46;35.40;;;17.30;;
2396;SDS011;1209;48.410;9.054;2023-03-03T03:35:12;37.70;;;19.17;;
2396;SDS011;1209;48.410;9.054;2023-03-03T03:37:37;41.83;;;18.87;;
2396;SDS011;1209;48.410;9.054;2023-03-03T03:40:04;37.60;;;17.45;;
2396;SDS011;1209;48.410;9.054;2023-03-03T03:42:30;30.77;;;17.42;;
2396;SDS011;1209;48.410;9.054;2023-03-03T03:44:55;32.97;;;15.97;;
2396;SDS011;1209;48.410;9.054;2023-03-03T03:47:20;31.67;;;17.53;;
2396;SDS011;1209;48.410;9.054;2023-03-03T03:49:46;43.03;;;17.10;;
2396;SDS011;1209;48.410;9.054;2023-03-03T03:52:11;33.17;;;15.37;;
2396;SDS011;1209;48.410;9.054;2023-03-03T03:54:36;34.73;;;17.63;;
2396;SDS011;1209;48.410;9.054;2023-03-03T03:57:02;35.33;;;16.57;;
2396;SDS011;1209;48.410;9.054;2023-03-03T03:59:27;38.70;;;17.13;;
2396;SDS011;1209;48.410;9.054;2023-03-03T04:01:53;33.50;;;15.83;;
2396;SDS011;1209;48.410;9.054;2023-03-03T04:04:18;32.60;;;16.57;;
2396;SDS011;1209;48.410;9.054;2023-03-03T04:06:43;29.90;;;17.00;;
2396;SDS011;1209;48.410;9.054;2023-03-03T04:09:09;38.80;;;18.17;;
2396;SDS011;1209;48.410;9.054;2023-03-03T04:11:34;29.40;;;17.20;;
2396;SDS011;1209;48.410;9.054;2023-03-03T04:14:00;38.13;;;17.47;;
2396;SDS011;1209;48.410;9.054;2023-03-03T04:16:25;27.10;;;15.23;;
2396;SDS011;1209;48.410;9.054;2023-03-03T04:18:50;38.63;;;19.07;;
2396;SDS011;1209;48.410;9.054;2023-03-03T04:21:16;40.67;;;16.30;;
2396;SDS011;1209;48.410;9.054;2023-03-03T04:23:41;36.83;;;16.80;;
2396;SDS011;1209;48.410;9.054;2023-03-03T04:26:06;36.87;;;18.73;;
2396;SDS011;1209;48.410;9.054;2023-03-03T04:28:32;34.80;;;17.10;;
2396;SDS011;1209;48.410;9.054;2023-03-03T04:30:58;30.57;;;16.87;;
2396;SDS011;1209;48.410;9.054;2023-03-03T04:33:23;35.27;;;16.13;;
2396;SDS011;1209;48.410;9.054;2023-03-03T04:35:48;35.00;;;17.20;;
2396;SDS011;1209;48.410;9.054;2023-03-03T04:38:15;33.05;;;17.27;;
2396;SDS011;1209;48.410;9.054;2023-03-03T04:40:41;35.70;;;18.63;;
2396;SDS011;1209;48.410;9.054;2023-03-03T04:43:06;36.30;;;17.90;;
2396;SDS011;1209;48.410;9.054;2023-03-03T04:45:32;30.52;;;17.13;;
2396;SDS011;1209;48.410;9.054;2023-03-03T04:47:58;41.23;;;17.80;;
2396;SDS011;1209;48.410;9.054;2023-03-03T04:50:23;42.73;;;18.97;;
2396;SDS011;1209;48.410;9.054;2023-03-03T04:52:48;31.07;;;18.03;;
2396;SDS011;1209;48.410;9.054;2023-03-03T04:55:14;35.57;;;18.17;;
2396;SDS011;1209;48.410;9.054;2023-03-03T04:57:40;36.58;;;18.40;;
2396;SDS011;1209;48.410;9.054;2023-03-03T05:00:06;42.80;;;18.57;;
2396;SDS011;1209;48.410;9.054;2023-03-03T05:02:32;36.40;;;18.17;;
2396;SDS011;1209;48.410;9.054;2023-03-03T05:04:57;35.53;;;17.77;;
2396;SDS011;1209;48.410;9.054;2023-03-03T05:07:22;48.97;;;19.87;;
2396;SDS011;1209;48.410;9.054;2023-03-03T05:09:48;42.67;;;20.13;;
2396;SDS011;1209;48.410;9.054;2023-03-03T05:12:14;37.70;;;17.63;;
2396;SDS011;1209;48.410;9.054;2023-03-03T05:14:39;28.87;;;16.90;;
2396;SDS011;1209;48.410;9.054;2023-03-03T05:17:04;37.27;;;19.40;;
2396;SDS011;1209;48.410;9.054;2023-03-03T05:19:30;34.03;;;17.73;;
2396;SDS011;1209;48.410;9.054;2023-03-03T05:21:55;37.83;;;16.33;;
2396;SDS011;1209;48.410;9.054;2023-03-03T05:24:21;39.17;;;17.40;;
2396;SDS011;1209;48.410;9.054;2023-03-03T05:26:47;43.08;;;18.98;;
2396;SDS011;1209;48.410;9.054;2023-03-03T05:29:13;34.87;;;19.47;;
2396;SDS011;1209;48.410;9.054;2023-03-03T05:31:38;32.93;;;18.17;;
2396;SDS011;1209;48.410;9.054;2023-03-03T05:34:04;36.30;;;17.00;;
2396;SDS011;1209;48.410;9.054;2023-03-03T05:36:29;34.37;;;17.87;;
2396;SDS011;1209;48.410;9.054;2023-03-03T05:38:54;40.50;;;19.90;;
2396;SDS011;1209;48.410;9.054;2023-03-03T05:41:20;35.03;;;17.33;;
2396;SDS011;1209;48.410;9.054;2023-03-03T05:43:45;41.97;;;17.57;;
2396;SDS011;1209;48.410;9.054;2023-03-03T05:46:11;36.80;;;18.20;;
2396;SDS011;1209;48.410;9.054;2023-03-03T05:48:37;38.80;;;18.73;;
2396;SDS011;1209;48.410;9.054;2023-03-03T05:51:02;40.80;;;19.90;;
2396;SDS011;1209;48.410;9.054;2023-03-03T05:53:28;37.80;;;17.80;;
2396;SDS011;1209;48.410;9.054;2023-03-03T05:55:54;34.40;;;17.67;;
2396;SDS011;1209;48.410;9.054;2023-03-03T05:58:19;38.43;;;18.63;;
2396;SDS011;1209;48.410;9.054;2023-03-03T06:00:44;36.70;;;17.30;;
2396;SDS011;1209;48.410;9.054;2023-03-03T06:03:10;33.23;;;16.67;;
2396;SDS011;1209;48.410;9.054;2023-03-03T06:05:35;42.10;;;18.50;;
2396;SDS011;1209;48.410;9.054;2023-03-03T06:08:01;43.23;;;20.40;;
2396;SDS011;1209;48.410;9.054;2023-03-03T06:10:26;37.70;;;19.27;;
2396;SDS011;1209;48.410;9.054;2023-03-03T06:12:52;35.20;;;18.00;;
2396;SDS011;1209;48.410;9.054;2023-03-03T06:15:19;39.05;;;19.17;;
2396;SDS011;1209;48.410;9.054;2023-03-03T06:17:44;37.80;;;19.47;;
2396;SDS011;1209;48.410;9.054;2023-03-03T06:20:09;46.90;;;20.60;;
2396;SDS011;1209;48.410;9.054;2023-03-03T06:22:35;42.27;;;20.37;;
2396;SDS011;1209;48.410;9.054;2023-03-03T06:25:00;43.07;;;18.57;;
2396;SDS011;1209;48.410;9.054;2023-03-03T06:27:26;34.80;;;18.53;;
2396;SDS011;1209;48.410;9.054;2023-03-03T06:29:51;37.37;;;20.23;;
2396;SDS011;1209;48.410;9.054;2023-03-03T06:32:16;39.13;;;18.53;;
2396;SDS011;1209;48.410;9.054;2023-03-03T06:34:42;41.77;;;18.47;;
2396;SDS011;1209;48.410;9.054;2023-03-03T06:37:07;40.50;;;18.93;;
2396;SDS011;1209;48.410;9.054;2023-03-03T06:39:32;40.23;;;20.80;;
2396;SDS011;1209;48.410;9.054;2023-03-03T06:41:57;41.40;;;21.40;;
2396;SDS011;1209;48.410;9.054;2023-03-03T06:44:23;48.00;;;20.00;;
2396;SDS011;1209;48.410;9.054;2023-03-03T06:46:48;33.57;;;17.77;;
2396;SDS011;1209;48.410;9.054;2023-03-03T06:49:14;42.87;;;20.40;;
2396;SDS011;1209;48.410;9.054;2023-03-03T06:51:39;47.20;;;19.27;;
2396;SDS011;1209;48.410;9.054;2023-03-03T06:54:17;43.77;;;20.70;;
2396;SDS011;1209;48.410;9.054;2023-03-03T06:56:45;35.63;;;19.08;;
2396;SDS011;1209;48.410;9.054;2023-03-03T06:59:18;46.85;;;19.90;;
2396;SDS011;1209;48.410;9.054;2023-03-03T07:01:46;36.97;;;19.33;;
2396;SDS011;1209;48.410;9.054;2023-03-03T07:06:56;39.22;;;18.85;;
2396;SDS011;1209;48.410;9.054;2023-03-03T07:09:27;50.78;;;19.48;;
2396;SDS011;1209;48.410;9.054;2023-03-03T07:12:35;45.70;;;22.50;;
2396;SDS011;1209;48.410;9.054;2023-03-03T07:17:56;43.10;;;19.52;;
2396;SDS011;1209;48.410;9.054;2023-03-03T07:20:31;50.05;;;20.70;;
2396;SDS011;1209;48.410;9.054;2023-03-03T07:22:59;46.55;;;18.13;;
2396;SDS011;1209;48.410;9.054;2023-03-03T07:25:30;43.20;;;18.55;;
2396;SDS011;1209;48.410;9.054;2023-03-03T07:27:59;47.05;;;21.73;;
2396;SDS011;1209;48.410;9.054;2023-03-03T07:30:40;37.90;;;17.20;;
2396;SDS011;1209;48.410;9.054;2023-03-03T07:33:07;37.70;;;17.83;;
2396;SDS011;1209;48.410;9.054;2023-03-03T07:35:46;40.63;;;19.77;;
2396;SDS011;1209;48.410;9.054;2023-03-03T07:38:16;45.50;;;20.67;;
2396;SDS011;1209;48.410;9.054;2023-03-03T07:40:50;30.70;;;17.35;;
2396;SDS011;1209;48.410;9.054;2023-03-03T07:45:52;38.60;;;18.70;;
2396;SDS011;1209;48.410;9.054;2023-03-03T07:48:34;35.38;;;17.52;;
2396;SDS011;1209;48.410;9.054;2023-03-03T07:51:03;44.45;;;19.58;;
2396;SDS011;1209;48.410;9.054;2023-03-03T07:53:35;42.85;;;19.15;;
2396;SDS011;1209;48.410;9.054;2023-03-03T07:56:02;43.63;;;20.55;;
2396;SDS011;1209;48.410;9.054;2023-03-03T07:58:39;36.75;;;19.35;;
2396;SDS011;1209;48.410;9.054;2023-03-03T08:03:56;40.53;;;19.20;;
2396;SDS011;1209;48.410;9.054;2023-03-03T08:11:33;36.40;;;18.35;;
2396;SDS011;1209;48.410;9.054;2023-03-03T08:13:58;41.80;;;19.27;;
2396;SDS011;1209;48.410;9.054;2023-03-03T08:16:28;38.10;;;19.10;;
2396;SDS011;1209;48.410;9.054;2023-03-03T08:19:01;36.63;;;18.02;;
2396;SDS011;1209;48.410;9.054;2023-03-03T08:21:29;33.53;;;18.45;;
2396;SDS011;1209;48.410;9.054;2023-03-03T08:23:55;40.30;;;18.80;;
2396;SDS011;1209;48.410;9.054;2023-03-03T08:26:24;41.70;;;20.83;;
2396;SDS011;1209;48.410;9.054;2023-03-03T08:28:51;44.17;;;21.17;;
2396;SDS011;1209;48.410;9.054;2023-03-03T08:31:17;40.60;;;21.10;;
2396;SDS011;1209;48.410;9.054;2023-03-03T08:33:44;39.70;;;20.45;;
2396;SDS011;1209;48.410;9.054;2023-03-03T08:36:10;42.20;;;22.20;;
2396;SDS011;1209;48.410;9.054;2023-03-03T08:38:35;41.07;;;20.77;;
2396;SDS011;1209;48.410;9.054;2023-03-03T08:41:01;43.63;;;20.73;;
2396;SDS011;1209;48.410;9.054;2023-03-03T08:43:27;47.30;;;20.03;;
2396;SDS011;1209;48.410;9.054;2023-03-03T08:45:53;51.63;;;21.10;;
2396;SDS011;1209;48.410;9.054;2023-03-03T08:48:22;44.40;;;18.85;;
2396;SDS011;1209;48.410;9.054;2023-03-03T08:50:47;53.20;;;21.73;;
2396;SDS011;1209;48.410;9.054;2023-03-03T08:53:13;48.87;;;20.50;;
2396;SDS011;1209;48.410;9.054;2023-03-03T08:55:39;47.00;;;21.97;;
2396;SDS011;1209;48.410;9.054;2023-03-03T08:58:05;45.70;;;19.50;;
2396;SDS011;1209;48.410;9.054;2023-03-03T09:00:30;44.07;;;19.63;;
2396;SDS011;1209;48.410;9.054;2023-03-03T09:02:56;39.43;;;18.77;;
2396;SDS011;1209;48.410;9.054;2023-03-03T09:05:21;42.17;;;18.47;;
2396;SDS011;1209;48.410;9.054;2023-03-03T09:07:48;42.53;;;20.42;;
2396;SDS011;1209;48.410;9.054;2023-03-03T09:10:16;53.85;;;20.50;;
2396;SDS011;1209;48.410;9.054;2023-03-03T09:12:44;37.28;;;19.00;;
2396;SDS011;1209;48.410;9.054;2023-03-03T09:15:19;41.78;;;18.67;;
2396;SDS011;1209;48.410;9.054;2023-03-03T09:17:45;40.85;;;18.50;;
2396;SDS011;1209;48.410;9.054;2023-03-03T09:23:18;38.70;;;18.95;;
2396;SDS011;1209;48.410;9.054;2023-03-03T09:25:58;38.38;;;18.92;;
2396;SDS011;1209;48.410;9.054;2023-03-03T09:28:30;45.92;;;20.50;;
2396;SDS011;1209;48.410;9.054;2023-03-03T09:30:57;48.10;;;22.60;;
2396;SDS011;1209;48.410;9.054;2023-03-03T09:33:26;41.88;;;17.83;;
2396;SDS011;1209;48.410;9.054;2023-03-03T09:36:16;42.25;;;20.30;;
2396;SDS011;1209;48.410;9.054;2023-03-03T09:38:49;44.45;;;21.13;;
2396;SDS011;1209;48.410;9.054;2023-03-03T09:49:42;47.35;;;19.67;;
2396;SDS011;1209;48.410;9.054;2023-03-03T09:53:39;41.72;;;18.45;;
2396;SDS011;1209;48.410;9.054;2023-03-03T09:58:18;48.28;;;22.80;;
2396;SDS011;1209;48.410;9.054;2023-03-03T10:18:12;53.13;;;24.48;;
2396;SDS011;1209;48.410;9.054;2023-03-03T10:21:08;51.20;;;20.42;;
2396;SDS011;1209;48.410;9.054;2023-03-03T10:39:58;36.40;;;18.65;;
2396;SDS011;1209;48.410;9.054;2023-03-03T10:45:27;40.20;;;18.45;;
2396;SDS011;1209;48.410;9.054;2023-03-03T10:48:13;41.67;;;19.75;;
2396;SDS011;1209;48.410;9.054;2023-03-03T10:56:54;36.13;;;19.80;;
2396;SDS011;1209;48.410;9.054;2023-03-03T11:02:48;60.77;;;25.93;;
2396;SDS011;1209;48.410;9.054;2023-03-03T11:08:02;41.43;;;21.70;;
2396;SDS011;1209;48.410;9.054;2023-03-03T11:23:44;32.63;;;18.63;;
2396;SDS011;1209;48.410;9.054;2023-03-03T11:26:25;42.93;;;19.70;;
2396;SDS011;1209;48.410;9.054;2023-03-03T11:31:37;40.55;;;20.88;;
2396;SDS011;1209;48.410;9.054;2023-03-03T11:36:51;36.63;;;19.33;;
2396;SDS011;1209;48.410;9.054;2023-03-03T11:39:24;37.87;;;18.57;;
2396;SDS011;1209;48.410;9.054;2023-03-03T11:44:48;46.53;;;20.30;;
2396;SDS011;1209;48.410;9.054;2023-03-03T11:47:23;35.30;;;18.60;;
2396;SDS011;1209;48.410;9.054;2023-03-03T11:50:00;38.27;;;18.77;;
2396;SDS011;1209;48.410;9.054;2023-03-03T11:52:31;39.47;;;20.57;;
2396;SDS011;1209;48.410;9.054;2023-03-03T11:57:45;44.43;;;20.27;;
2396;SDS011;1209;48.410;9.054;2023-03-03T12:26:05;46.10;;;19.87;;
2396;SDS011;1209;48.410;9.054;2023-03-03T12:28:43;40.37;;;19.90;;
2396;SDS011;1209;48.410;9.054;2023-03-03T12:34:23;39.33;;;19.73;;
2396;SDS011;1209;48.410;9.054;2023-03-03T12:37:05;36.37;;;19.67;;
2396;SDS011;1209;48.410;9.054;2023-03-03T12:39:51;37.33;;;18.53;;
2396;SDS011;1209;48.410;9.054;2023-03-03T12:51:15;38.50;;;19.57;;
2396;SDS011;1209;48.410;9.054;2023-03-03T12:56:45;40.63;;;19.90;;
2396;SDS011;1209;48.410;9.054;2023-03-03T13:02:19;37.83;;;18.87;;
2396;SDS011;1209;48.410;9.054;2023-03-03T13:05:03;39.83;;;19.97;;
2396;SDS011;1209;48.410;9.054;2023-03-03T13:07:41;38.40;;;19.30;;
2396;SDS011;1209;48.410;9.054;2023-03-03T13:10:16;43.53;;;23.10;;
2396;SDS011;1209;48.410;9.054;2023-03-03T13:12:51;36.03;;;20.90;;
2396;SDS011;1209;48.410;9.054;2023-03-03T13:15:27;35.07;;;18.37;;
2396;SDS011;1209;48.410;9.054;2023-03-03T13:27:59;33.77;;;18.87;;
2396;SDS011;1209;48.410;9.054;2023-03-03T13:30:34;33.50;;;18.90;;
2396;SDS011;1209;48.410;9.054;2023-03-03T13:38:16;40.00;;;18.70;;
2396;SDS011;1209;48.410;9.054;2023-03-03T13:40:50;35.63;;;17.80;;
2396;SDS011;1209;48.410;9.054;2023-03-03T13:43:28;34.97;;;18.73;;
2396;SDS011;1209;48.410;9.054;2023-03-03T13:45:58;37.17;;;17.80;;
2396;SDS011;1209;48.410;9.054;2023-03-03T13:51:36;36.57;;;18.90;;
2396;SDS011;1209;48.410;9.054;2023-03-03T14:02:48;36.27;;;18.87;;
2396;SDS011;1209;48.410;9.054;2023-03-03T14:07:51;36.63;;;19.23;;
2396;SDS011;1209;48.410;9.054;2023-03-03T14:13:18;36.87;;;17.90;;
2396;SDS011;1209;48.410;9.054;2023-03-03T14:18:28;38.20;;;20.60;;
2396;SDS011;1209;48.410;9.054;2023-03-03T14:21:13;41.77;;;20.73;;
2396;SDS011;1209;48.410;9.054;2023-03-03T14:26:23;31.10;;;17.73;;
2396;SDS011;1209;48.410;9.054;2023-03-03T14:28:49;40.40;;;20.03;;
2396;SDS011;1209;48.410;9.054;2023-03-03T14:31:24;34.37;;;18.00;;
2396;SDS011;1209;48.410;9.054;2023-03-03T14:36:37;34.60;;;18.90;;
2396;SDS011;1209;48.410;9.054;2023-03-03T14:39:25;29.33;;;17.20;;
2396;SDS011;1209;48.410;9.054;2023-03-03T14:41:55;35.20;;;19.63;;
2396;SDS011;1209;48.410;9.054;2023-03-03T14:47:38;43.03;;;23.23;;
2396;SDS011;1209;48.410;9.054;2023-03-03T14:49:46;30.43;;;18.00;;
2396;SDS011;1209;48.410;9.054;2023-03-03T14:54:40;36.00;;;17.30;;
2396;SDS011;1209;48.410;9.054;2023-03-03T14:57:11;53.10;;;21.93;;
2396;SDS011;1209;48.410;9.054;2023-03-03T14:59:54;43.00;;;23.27;;
2396;SDS011;1209;48.410;9.054;2023-03-03T15:02:34;35.10;;;21.90;;
2396;SDS011;1209;48.410;9.054;2023-03-03T15:05:18;29.00;;;17.70;;
2396;SDS011;1209;48.410;9.054;2023-03-03T15:07:56;38.13;;;19.70;;
2396;SDS011;1209;48.410;9.054;2023-03-03T15:10:42;41.67;;;19.17;;
2396;SDS011;1209;48.410;9.054;2023-03-03T15:15:48;44.30;;;22.47;;
2396;SDS011;1209;48.410;9.054;2023-03-03T15:18:16;44.40;;;21.13;;
2396;SDS011;1209;48.410;9.054;2023-03-03T15:28:35;40.40;;;17.83;;
2396;SDS011;1209;48.410;9.054;2023-03-03T15:31:13;35.47;;;19.50;;
2396;SDS011;1209;48.410;9.054;2023-03-03T15:36:43;33.87;;;18.63;;
2396;SDS011;1209;48.410;9.054;2023-03-03T15:39:35;37.13;;;17.70;;
2396;SDS011;1209;48.410;9.054;2023-03-03T15:42:14;32.60;;;17.90;;
2396;SDS011;1209;48.410;9.054;2023-03-03T15:44:52;54.27;;;25.37;;
2396;SDS011;1209;48.410;9.054;2023-03-03T15:50:53;39.23;;;20.93;;
2396;SDS011;1209;48.410;9.054;2023-03-03T15:56:50;37.57;;;20.37;;
2396;SDS011;1209;48.410;9.054;2023-03-03T16:04:58;35.20;;;17.57;;
2396;SDS011;1209;48.410;9.054;2023-03-03T16:07:38;39.73;;;19.83;;
2396;SDS011;1209;48.410;9.054;2023-03-03T16:10:20;41.23;;;18.70;;
2396;SDS011;1209;48.410;9.054;2023-03-03T16:13:16;47.70;;;22.73;;
2396;SDS011;1209;48.410;9.054;2023-03-03T16:27:48;38.67;;;20.13;;
2396;SDS011;1209;48.410;9.054;2023-03-03T16:30:24;42.67;;;22.83;;
2396;SDS011;1209;48.410;9.054;2023-03-03T16:36:04;37.70;;;21.20;;
2396;SDS011;1209;48.410;9.054;2023-03-03T16:38:39;38.93;;;19.97;;
2396;SDS011;1209;48.410;9.054;2023-03-03T16:41:22;45.30;;;22.23;;
2396;SDS011;1209;48.410;9.054;2023-03-03T16:44:03;39.33;;;21.10;;
2396;SDS011;1209;48.410;9.054;2023-03-03T16:47:01;46.47;;;22.97;;
2396;SDS011;1209;48.410;9.054;2023-03-03T16:52:31;40.83;;;19.90;;
2396;SDS011;1209;48.410;9.054;2023-03-03T16:55:20;34.90;;;19.27;;
2396;SDS011;1209;48.410;9.054;2023-03-03T17:00:58;40.03;;;20.07;;
2396;SDS011;1209;48.410;9.054;2023-03-03T17:03:37;44.00;;;22.30;;
2396;SDS011;1209;48.410;9.054;2023-03-03T17:06:18;44.87;;;25.27;;
2396;SDS011;1209;48.410;9.054;2023-03-03T17:09:02;55.10;;;26.90;;
2396;SDS011;1209;48.410;9.054;2023-03-03T17:14:41;45.50;;;26.07;;
2396;SDS011;1209;48.410;9.054;2023-03-03T17:17:10;46.60;;;28.53;;
2396;SDS011;1209;48.410;9.054;2023-03-03T17:25:11;56.10;;;28.63;;
2396;SDS011;1209;48.410;9.054;2023-03-03T17:27:49;69.03;;;30.97;;
2396;SDS011;1209;48.410;9.054;2023-03-03T17:39:45;55.77;;;26.97;;
2396;SDS011;1209;48.410;9.054;2023-03-03T17:45:23;43.40;;;21.80;;
2396;SDS011;1209;48.410;9.054;2023-03-03T17:54:38;51.63;;;24.10;;
2396;SDS011;1209;48.410;9.054;2023-03-03T18:07:15;43.63;;;22.47;;
2396;SDS011;1209;48.410;9.054;2023-03-03T18:15:27;39.33;;;20.10;;
2396;SDS011;1209;48.410;9.054;2023-03-03T18:30:26;47.33;;;23.77;;
2396;SDS011;1209;48.410;9.054;2023-03-03T18:37:57;38.37;;;21.00;;
2396;SDS011;1209;48.410;9.054;2023-03-03T18:40:59;46.88;;;22.55;;
2396;SDS011;1209;48.410;9.054;2023-03-03T18:49:06;41.67;;;21.23;;
2396;SDS011;1209;48.410;9.054;2023-03-03T18:59:51;36.63;;;20.35;;
2396;SDS011;1209;48.410;9.054;2023-03-03T19:16:53;45.13;;;23.35;;
2396;SDS011;1209;48.410;9.054;2023-03-03T19:19:20;43.85;;;21.92;;
2396;SDS011;1209;48.410;9.054;2023-03-03T19:21:50;46.42;;;23.02;;
2396;SDS011;1209;48.410;9.054;2023-03-03T19:24:36;51.20;;;25.95;;
2396;SDS011;1209;48.410;9.054;2023-03-03T19:27:13;46.80;;;24.20;;
2396;SDS011;1209;48.410;9.054;2023-03-03T19:29:54;40.95;;;21.40;;
2396;SDS011;1209;48.410;9.054;2023-03-03T19:32:47;41.63;;;21.15;;
2396;SDS011;1209;48.410;9.054;2023-03-03T19:35:29;39.27;;;21.87;;
2396;SDS011;1209;48.410;9.054;2023-03-03T19:38:03;49.03;;;23.63;;
2396;SDS011;1209;48.410;9.054;2023-03-03T19:44:02;44.50;;;19.60;;
2396;SDS011;1209;48.410;9.054;2023-03-03T19:46:46;41.38;;;19.90;;
2396;SDS011;1209;48.410;9.054;2023-03-03T19:52:24;42.65;;;21.38;;
2396;SDS011;1209;48.410;9.054;2023-03-03T20:00:26;37.25;;;18.75;;
2396;SDS011;1209;48.410;9.054;2023-03-03T20:13:05;37.40;;;19.33;;
2396;SDS011;1209;48.410;9.054;2023-03-03T20:15:54;31.10;;;17.25;;
2396;SDS011;1209;48.410;9.054;2023-03-03T20:30:33;49.20;;;26.08;;
2396;SDS011;1209;48.410;9.054;2023-03-03T20:35:53;56.50;;;26.27;;
2396;SDS011;1209;48.410;9.054;2023-03-03T20:38:40;50.47;;;23.85;;
2396;SDS011;1209;48.410;9.054;2023-03-03T20:44:28;49.25;;;23.90;;
2396;SDS011;1209;48.410;9.054;2023-03-03T20:47:22;38.67;;;21.77;;
2396;SDS011;1209;48.410;9.054;2023-03-03T20:50:10;40.83;;;21.42;;
2396;SDS011;1209;48.410;9.054;2023-03-03T21:00:44;45.60;;;23.08;;
2396;SDS011;1209;48.410;9.054;2023-03-03T21:03:36;40.30;;;20.70;;
2396;SDS011;1209;48.410;9.054;2023-03-03T21:06:04;36.00;;;21.02;;
2396;SDS011;1209;48.410;9.054;2023-03-03T21:11:22;54.65;;;25.00;;
2396;SDS011;1209;48.410;9.054;2023-03-03T21:14:12;38.85;;;20.50;;
2396;SDS011;1209;48.410;9.054;2023-03-03T21:16:41;48.20;;;21.63;;
2396;SDS011;1209;48.410;9.054;2023-03-03T21:19:11;51.73;;;22.20;;
2396;SDS011;1209;48.410;9.054;2023-03-03T21:21:39;46.88;;;22.90;;
2396;SDS011;1209;48.410;9.054;2023-03-03T21:24:06;41.03;;;21.52;;
2396;SDS011;1209;48.410;9.054;2023-03-03T21:30:07;38.00;;;21.33;;
2396;SDS011;1209;48.410;9.054;2023-03-03T21:32:39;45.10;;;21.58;;
2396;SDS011;1209;48.410;9.054;2023-03-03T21:35:11;46.92;;;21.63;;
2396;SDS011;1209;48.410;9.054;2023-03-03T21:37:49;36.67;;;18.73;;
2396;SDS011;1209;48.410;9.054;2023-03-03T21:40:17;38.28;;;21.08;;
2396;SDS011;1209;48.410;9.054;2023-03-03T21:42:47;34.92;;;18.52;;
2396;SDS011;1209;48.410;9.054;2023-03-03T21:45:13;45.70;;;20.50;;
2396;SDS011;1209;48.410;9.054;2023-03-03T21:47:40;40.85;;;19.05;;
2396;SDS011;1209;48.410;9.054;2023-03-03T21:50:06;38.80;;;20.93;;
2396;SDS011;1209;48.410;9.054;2023-03-03T21:52:32;49.88;;;22.02;;